createdAt,value
2023-02-27T00:00:33.878Z,20.6
2023-02-27T00:15:31.843Z,20.6
2023-02-27T00:30:33.048Z,20.6
2023-02-27T00:45:33.015Z,20.6
2023-02-27T01:00:32.108Z,20.6
2023-02-27T01:15:32.658Z,20.5
2023-02-27T01:30:33.241Z,20.5
2023-02-27T01:45:32.319Z,20.5
2023-02-27T02:00:32.324Z,20.5
2023-02-27T02:15:32.532Z,20.5
2023-02-27T02:30:32.087Z,20.5
2023-02-27T02:45:32.874Z,20.5
2023-02-27T03:00:32.017Z,20.5
2023-02-27T03:15:32.868Z,20.5
2023-02-27T03:30:32.322Z,20.6
2023-02-27T03:45:32.257Z,20.6
2023-02-27T04:00:32.309Z,20.6
2023-02-27T04:15:32.364Z,20.6
2023-02-27T04:30:32.761Z,20.7
2023-02-27T04:45:32.149Z,20.7
2023-02-27T05:00:32.565Z,20.7
2023-02-27T05:15:31.936Z,20.7
2023-02-27T05:30:32.729Z,20.7
2023-02-27T05:45:33.108Z,20.8
2023-02-27T06:00:34.793Z,20.8
2023-02-27T06:15:32.388Z,20.8
2023-02-27T06:30:37.446Z,20.9
2023-02-27T06:45:32.217Z,20.9
2023-02-27T07:00:41.024Z,21.2
2023-02-27T07:15:33.147Z,21.2
2023-02-27T07:30:38.031Z,21.4
2023-02-27T07:45:31.955Z,21.5
2023-02-27T08:00:39.774Z,21.6
2023-02-27T08:15:34.207Z,21.7
2023-02-27T08:30:34.256Z,21.8
2023-02-27T08:45:32.827Z,21.9
2023-02-27T09:00:34.863Z,22.0
2023-02-27T09:15:32.242Z,22
2023-02-27T09:30:32.493Z,22.1
2023-02-27T09:45:32.947Z,22.1
2023-02-27T10:00:35.341Z,22.2
2023-02-27T10:15:32.303Z,22.2
2023-02-27T10:30:35.039Z,22.3
2023-02-27T10:46:03.193Z,22.3
2023-02-27T11:00:35.732Z,22.3
2023-02-27T11:15:32.189Z,22.3
2023-02-27T11:30:34.162Z,22.3
2023-02-27T11:46:05.508Z,22.3
2023-02-27T12:00:36.610Z,22.3
2023-02-27T12:15:32.629Z,22.4
2023-02-27T12:30:33.968Z,22.4
2023-02-27T12:45:32.494Z,22.5
2023-02-27T13:00:37.015Z,22.5
2023-02-27T13:15:31.919Z,22.5
2023-02-27T13:30:32.579Z,22.5
2023-02-27T13:45:32.529Z,22.6
2023-02-27T14:00:36.308Z,22.6
2023-02-27T14:15:32.640Z,22.6
2023-02-27T14:30:33.274Z,22.6
2023-02-27T14:45:32.947Z,22.6
2023-02-27T15:00:36.526Z,22.7
2023-02-27T15:15:32.935Z,22.7
2023-02-27T15:30:34.797Z,22.6
2023-02-27T15:45:32.932Z,22.6
2023-02-27T16:00:34.952Z,22.6
2023-02-27T16:15:32.105Z,22.4
2023-02-27T16:30:35.966Z,22.4
2023-02-27T16:45:32.732Z,22.2
2023-02-27T17:00:40.842Z,22.1
2023-02-27T17:15:32.640Z,22.1
2023-02-27T17:30:35.353Z,22.0
2023-02-27T17:45:33.118Z,21.9
2023-02-27T18:00:40.747Z,21.8
2023-02-27T18:15:33.262Z,21.7
2023-02-27T18:30:35.942Z,21.6
2023-02-27T18:45:32.733Z,21.5
2023-02-27T19:00:35.460Z,21.5
2023-02-27T19:15:32.162Z,21.4
2023-02-27T19:30:34.274Z,21.4
2023-02-27T19:45:32.640Z,21.3
2023-02-27T20:00:34.882Z,21.3
2023-02-27T20:15:32.276Z,21.2
2023-02-27T20:30:32.902Z,21.2
2023-02-27T20:45:32.239Z,21.1
2023-02-27T21:00:35.612Z,21.1
2023-02-27T21:15:32.364Z,21.0
2023-02-27T21:30:33.036Z,21
2023-02-27T21:45:32.463Z,21
2023-02-27T22:00:33.063Z,20.9
2023-02-27T22:15:32.315Z,20.9
2023-02-27T22:30:32.406Z,20.9
2023-02-27T22:45:31.968Z,20.8
2023-02-27T23:00:32.647Z,20.8
2023-02-27T23:15:31.764Z,20.8
2023-02-27T23:30:32.119Z,20.8
2023-02-27T23:45:31.979Z,20.8
